sensor_id;sensor_type;location;lat;lon;timestamp;temperature;humidity
975;DHT22;6115;49.296;10.602;2023-05-02T00:04:06;8.30;69.60
975;DHT22;6115;49.296;10.602;2023-05-02T00:09:06;8.30;69.70
975;DHT22;6115;49.296;10.602;2023-05-02T00:14:07;8.20;69.80
975;DHT22;6115;49.296;10.602;2023-05-02T00:19:08;8.10;69.80
975;DHT22;6115;49.296;10.602;2023-05-02T00:24:08;8.10;70.20
975;DHT22;6115;49.296;10.602;2023-05-02T00:29:09;8.10;70.00
975;DHT22;6115;49.296;10.602;2023-05-02T00:34:09;8.10;69.70
975;DHT22;6115;49.296;10.602;2023-05-02T00:39:10;8.00;69.80
975;DHT22;6115;49.296;10.602;2023-05-02T00:44:10;7.90;69.60
975;DHT22;6115;49.296;10.602;2023-05-02T00:49:11;7.80;70.00
975;DHT22;6115;49.296;10.602;2023-05-02T00:54:12;7.80;70.30
975;DHT22;6115;49.296;10.602;2023-05-02T00:59:14;7.70;70.30
975;DHT22;6115;49.296;10.602;2023-05-02T01:04:38;7.70;70.60
975;DHT22;6115;49.296;10.602;2023-05-02T01:15:22;7.70;71.30
975;DHT22;6115;49.296;10.602;2023-05-02T01:20:26;7.70;71.30
975;DHT22;6115;49.296;10.602;2023-05-02T01:25:48;7.60;71.10
975;DHT22;6115;49.296;10.602;2023-05-02T01:30:52;7.40;71.90
975;DHT22;6115;49.296;10.602;2023-05-02T01:35:54;7.30;72.50
975;DHT22;6115;49.296;10.602;2023-05-02T01:40:56;7.20;72.40
975;DHT22;6115;49.296;10.602;2023-05-02T01:46:03;7.20;72.50
975;DHT22;6115;49.296;10.602;2023-05-02T01:51:06;7.30;72.50
975;DHT22;6115;49.296;10.602;2023-05-02T01:56:07;7.30;72.30
975;DHT22;6115;49.296;10.602;2023-05-02T02:01:08;7.30;72.40
975;DHT22;6115;49.296;10.602;2023-05-02T02:06:10;7.30;72.50
975;DHT22;6115;49.296;10.602;2023-05-02T02:11:12;7.30;72.50
975;DHT22;6115;49.296;10.602;2023-05-02T02:16:20;7.20;72.40
975;DHT22;6115;49.296;10.602;2023-05-02T02:21:25;7.10;72.70
975;DHT22;6115;49.296;10.602;2023-05-02T02:26:28;7.00;73.70
975;DHT22;6115;49.296;10.602;2023-05-02T02:31:35;6.90;74.50
975;DHT22;6115;49.296;10.602;2023-05-02T02:37:03;7.00;74.50
975;DHT22;6115;49.296;10.602;2023-05-02T02:47:31;7.00;73.50
975;DHT22;6115;49.296;10.602;2023-05-02T02:52:58;7.00;73.20
975;DHT22;6115;49.296;10.602;2023-05-02T02:58:10;7.00;72.80
975;DHT22;6115;49.296;10.602;2023-05-02T03:03:15;6.90;72.70
975;DHT22;6115;49.296;10.602;2023-05-02T03:08:16;6.90;72.70
975;DHT22;6115;49.296;10.602;2023-05-02T03:13:17;6.90;73.00
975;DHT22;6115;49.296;10.602;2023-05-02T03:18:18;7.00;73.50
975;DHT22;6115;49.296;10.602;2023-05-02T03:23:18;7.10;73.90
975;DHT22;6115;49.296;10.602;2023-05-02T03:28:19;7.10;74.50
975;DHT22;6115;49.296;10.602;2023-05-02T03:33:19;7.10;75.00
975;DHT22;6115;49.296;10.602;2023-05-02T03:38:20;7.10;75.60
975;DHT22;6115;49.296;10.602;2023-05-02T03:43:21;7.10;75.50
975;DHT22;6115;49.296;10.602;2023-05-02T03:48:22;7.30;75.20
975;DHT22;6115;49.296;10.602;2023-05-02T03:53:22;7.30;74.90
975;DHT22;6115;49.296;10.602;2023-05-02T03:58:23;7.40;75.70
975;DHT22;6115;49.296;10.602;2023-05-02T04:03:24;7.40;75.80
975;DHT22;6115;49.296;10.602;2023-05-02T04:08:25;7.50;75.60
975;DHT22;6115;49.296;10.602;2023-05-02T04:13:26;7.60;75.80
975;DHT22;6115;49.296;10.602;2023-05-02T04:18:28;7.70;77.60
975;DHT22;6115;49.296;10.602;2023-05-02T04:23:28;7.90;78.40
975;DHT22;6115;49.296;10.602;2023-05-02T04:28:29;8.10;79.10
975;DHT22;6115;49.296;10.602;2023-05-02T04:33:29;8.00;78.40
975;DHT22;6115;49.296;10.602;2023-05-02T04:38:30;8.10;78.10
975;DHT22;6115;49.296;10.602;2023-05-02T04:43:31;8.20;78.10
975;DHT22;6115;49.296;10.602;2023-05-02T04:48:32;8.30;78.30
975;DHT22;6115;49.296;10.602;2023-05-02T04:53:33;8.50;78.40
975;DHT22;6115;49.296;10.602;2023-05-02T04:58:33;8.70;78.60
975;DHT22;6115;49.296;10.602;2023-05-02T05:03:34;8.80;78.30
975;DHT22;6115;49.296;10.602;2023-05-02T05:08:35;8.90;78.80
975;DHT22;6115;49.296;10.602;2023-05-02T05:13:35;9.10;79.00
975;DHT22;6115;49.296;10.602;2023-05-02T05:18:36;9.30;79.70
975;DHT22;6115;49.296;10.602;2023-05-02T05:23:40;9.40;80.40
975;DHT22;6115;49.296;10.602;2023-05-02T05:28:45;9.50;80.30
975;DHT22;6115;49.296;10.602;2023-05-02T05:33:45;9.70;80.00
975;DHT22;6115;49.296;10.602;2023-05-02T05:38:46;10.00;78.80
975;DHT22;6115;49.296;10.602;2023-05-02T05:43:46;10.10;77.90
975;DHT22;6115;49.296;10.602;2023-05-02T05:48:47;10.30;77.70
975;DHT22;6115;49.296;10.602;2023-05-02T05:53:47;10.30;76.50
975;DHT22;6115;49.296;10.602;2023-05-02T05:58:48;10.50;76.80
975;DHT22;6115;49.296;10.602;2023-05-02T06:03:48;10.50;76.30
975;DHT22;6115;49.296;10.602;2023-05-02T06:08:49;10.50;75.60
975;DHT22;6115;49.296;10.602;2023-05-02T06:13:53;10.60;75.80
975;DHT22;6115;49.296;10.602;2023-05-02T06:18:53;10.70;74.70
975;DHT22;6115;49.296;10.602;2023-05-02T06:23:54;10.80;74.70
975;DHT22;6115;49.296;10.602;2023-05-02T06:28:55;10.80;74.20
975;DHT22;6115;49.296;10.602;2023-05-02T06:33:56;10.70;73.90
975;DHT22;6115;49.296;10.602;2023-05-02T06:38:57;10.80;74.20
975;DHT22;6115;49.296;10.602;2023-05-02T06:43:57;10.90;74.30
975;DHT22;6115;49.296;10.602;2023-05-02T06:48:58;10.80;73.80
975;DHT22;6115;49.296;10.602;2023-05-02T06:53:58;10.90;74.30
975;DHT22;6115;49.296;10.602;2023-05-02T06:58:59;11.10;74.20
975;DHT22;6115;49.296;10.602;2023-05-02T07:04:00;11.10;73.30
975;DHT22;6115;49.296;10.602;2023-05-02T07:09:05;11.20;73.30
975;DHT22;6115;49.296;10.602;2023-05-02T07:14:05;11.20;73.90
975;DHT22;6115;49.296;10.602;2023-05-02T07:19:06;11.10;73.50
975;DHT22;6115;49.296;10.602;2023-05-02T07:24:06;11.20;73.70
975;DHT22;6115;49.296;10.602;2023-05-02T07:29:07;11.30;73.40
975;DHT22;6115;49.296;10.602;2023-05-02T07:34:08;11.50;73.30
975;DHT22;6115;49.296;10.602;2023-05-02T07:39:08;11.70;72.80
975;DHT22;6115;49.296;10.602;2023-05-02T07:44:10;11.90;71.90
975;DHT22;6115;49.296;10.602;2023-05-02T07:49:11;11.70;71.70
975;DHT22;6115;49.296;10.602;2023-05-02T07:54:16;11.60;71.10
975;DHT22;6115;49.296;10.602;2023-05-02T07:59:17;11.80;70.90
975;DHT22;6115;49.296;10.602;2023-05-02T08:04:18;11.90;71.00
975;DHT22;6115;49.296;10.602;2023-05-02T08:09:18;12.10;69.20
975;DHT22;6115;49.296;10.602;2023-05-02T08:14:19;12.40;67.70
975;DHT22;6115;49.296;10.602;2023-05-02T08:19:19;12.60;68.10
975;DHT22;6115;49.296;10.602;2023-05-02T08:24:20;12.90;66.90
975;DHT22;6115;49.296;10.602;2023-05-02T08:29:22;13.00;65.90
975;DHT22;6115;49.296;10.602;2023-05-02T08:34:23;13.30;64.90
975;DHT22;6115;49.296;10.602;2023-05-02T08:39:23;13.60;62.70
975;DHT22;6115;49.296;10.602;2023-05-02T08:44:24;13.70;62.80
975;DHT22;6115;49.296;10.602;2023-05-02T08:49:25;13.80;60.70
975;DHT22;6115;49.296;10.602;2023-05-02T08:54:28;14.10;59.50
975;DHT22;6115;49.296;10.602;2023-05-02T08:59:28;14.20;61.10
975;DHT22;6115;49.296;10.602;2023-05-02T09:04:30;14.30;58.30
975;DHT22;6115;49.296;10.602;2023-05-02T09:09:34;14.40;57.10
975;DHT22;6115;49.296;10.602;2023-05-02T09:14:35;14.70;56.70
975;DHT22;6115;49.296;10.602;2023-05-02T09:19:36;14.90;56.70
975;DHT22;6115;49.296;10.602;2023-05-02T09:24:37;15.30;55.00
975;DHT22;6115;49.296;10.602;2023-05-02T09:29:37;15.50;55.60
975;DHT22;6115;49.296;10.602;2023-05-02T09:34:40;15.80;55.70
975;DHT22;6115;49.296;10.602;2023-05-02T09:40:06;16.00;54.20
975;DHT22;6115;49.296;10.602;2023-05-02T09:45:16;16.00;51.80
975;DHT22;6115;49.296;10.602;2023-05-02T09:50:34;16.10;51.60
975;DHT22;6115;49.296;10.602;2023-05-02T09:55:36;16.90;51.90
975;DHT22;6115;49.296;10.602;2023-05-02T10:00:43;16.90;49.30
975;DHT22;6115;49.296;10.602;2023-05-02T10:05:45;17.00;49.10
975;DHT22;6115;49.296;10.602;2023-05-02T10:10:50;17.70;49.00
975;DHT22;6115;49.296;10.602;2023-05-02T10:16:03;18.20;48.50
975;DHT22;6115;49.296;10.602;2023-05-02T10:21:10;17.90;48.20
975;DHT22;6115;49.296;10.602;2023-05-02T10:26:16;17.50;49.00
975;DHT22;6115;49.296;10.602;2023-05-02T10:31:17;17.00;49.00
975;DHT22;6115;49.296;10.602;2023-05-02T10:36:21;17.20;48.20
975;DHT22;6115;49.296;10.602;2023-05-02T10:41:25;17.00;48.80
975;DHT22;6115;49.296;10.602;2023-05-02T10:51:32;17.30;47.90
975;DHT22;6115;49.296;10.602;2023-05-02T10:56:33;17.40;47.80
975;DHT22;6115;49.296;10.602;2023-05-02T11:01:34;17.10;48.10
975;DHT22;6115;49.296;10.602;2023-05-02T11:11:56;16.80;50.20
975;DHT22;6115;49.296;10.602;2023-05-02T11:38:09;16.60;54.90
975;DHT22;6115;49.296;10.602;2023-05-02T11:43:13;17.00;50.70
975;DHT22;6115;49.296;10.602;2023-05-02T11:48:16;16.70;51.00
975;DHT22;6115;49.296;10.602;2023-05-02T11:53:28;16.90;47.40
975;DHT22;6115;49.296;10.602;2023-05-02T11:58:30;17.60;49.80
975;DHT22;6115;49.296;10.602;2023-05-02T12:03:34;18.50;48.70
975;DHT22;6115;49.296;10.602;2023-05-02T12:08:35;18.20;42.70
975;DHT22;6115;49.296;10.602;2023-05-02T12:13:44;18.50;42.90
975;DHT22;6115;49.296;10.602;2023-05-02T12:18:46;19.20;43.20
975;DHT22;6115;49.296;10.602;2023-05-02T12:23:47;19.60;40.70
975;DHT22;6115;49.296;10.602;2023-05-02T12:28:49;18.90;40.60
975;DHT22;6115;49.296;10.602;2023-05-02T12:33:50;18.10;42.90
975;DHT22;6115;49.296;10.602;2023-05-02T12:38:53;17.40;44.20
975;DHT22;6115;49.296;10.602;2023-05-02T12:43:57;16.60;44.20
975;DHT22;6115;49.296;10.602;2023-05-02T12:49:07;16.40;44.60
975;DHT22;6115;49.296;10.602;2023-05-02T12:54:19;16.60;43.60
975;DHT22;6115;49.296;10.602;2023-05-02T12:59:27;16.60;45.30
975;DHT22;6115;49.296;10.602;2023-05-02T13:04:40;17.40;46.60
975;DHT22;6115;49.296;10.602;2023-05-02T13:09:41;17.90;46.10
975;DHT22;6115;49.296;10.602;2023-05-02T13:14:41;18.20;46.60
975;DHT22;6115;49.296;10.602;2023-05-02T13:19:42;18.40;46.00
975;DHT22;6115;49.296;10.602;2023-05-02T13:24:43;18.30;44.40
975;DHT22;6115;49.296;10.602;2023-05-02T13:29:45;18.50;44.30
975;DHT22;6115;49.296;10.602;2023-05-02T13:34:46;18.90;43.50
975;DHT22;6115;49.296;10.602;2023-05-02T13:39:47;19.40;43.50
975;DHT22;6115;49.296;10.602;2023-05-02T13:44:47;19.50;44.90
975;DHT22;6115;49.296;10.602;2023-05-02T13:49:48;19.20;46.20
975;DHT22;6115;49.296;10.602;2023-05-02T13:54:49;19.40;45.30
975;DHT22;6115;49.296;10.602;2023-05-02T13:59:49;18.80;46.00
975;DHT22;6115;49.296;10.602;2023-05-02T14:04:50;18.80;46.80
975;DHT22;6115;49.296;10.602;2023-05-02T14:09:52;19.10;46.40
975;DHT22;6115;49.296;10.602;2023-05-02T14:14:53;19.60;46.00
975;DHT22;6115;49.296;10.602;2023-05-02T14:19:53;19.80;45.20
975;DHT22;6115;49.296;10.602;2023-05-02T14:24:54;20.10;45.40
975;DHT22;6115;49.296;10.602;2023-05-02T14:29:55;20.30;45.00
975;DHT22;6115;49.296;10.602;2023-05-02T14:34:55;20.60;42.80
975;DHT22;6115;49.296;10.602;2023-05-02T14:39:56;20.30;43.40
975;DHT22;6115;49.296;10.602;2023-05-02T14:44:58;20.40;43.10
975;DHT22;6115;49.296;10.602;2023-05-02T14:50:02;20.00;44.10
975;DHT22;6115;49.296;10.602;2023-05-02T14:55:03;20.20;43.30
975;DHT22;6115;49.296;10.602;2023-05-02T15:00:04;20.10;43.40
975;DHT22;6115;49.296;10.602;2023-05-02T15:05:09;19.80;43.80
975;DHT22;6115;49.296;10.602;2023-05-02T15:10:11;20.10;42.60
975;DHT22;6115;49.296;10.602;2023-05-02T15:15:12;20.00;41.50
975;DHT22;6115;49.296;10.602;2023-05-02T15:20:13;20.10;42.80
975;DHT22;6115;49.296;10.602;2023-05-02T15:25:13;19.80;42.90
975;DHT22;6115;49.296;10.602;2023-05-02T15:30:14;19.20;43.30
975;DHT22;6115;49.296;10.602;2023-05-02T15:35:15;19.00;43.60
975;DHT22;6115;49.296;10.602;2023-05-02T15:40:15;18.80;44.30
975;DHT22;6115;49.296;10.602;2023-05-02T15:45:16;18.70;44.00
975;DHT22;6115;49.296;10.602;2023-05-02T15:50:17;18.60;44.20
975;DHT22;6115;49.296;10.602;2023-05-02T15:55:17;18.80;43.50
975;DHT22;6115;49.296;10.602;2023-05-02T16:00:18;18.60;42.80
975;DHT22;6115;49.296;10.602;2023-05-02T16:05:19;18.50;44.10
975;DHT22;6115;49.296;10.602;2023-05-02T16:10:19;18.20;44.90
975;DHT22;6115;49.296;10.602;2023-05-02T16:15:20;18.40;46.00
975;DHT22;6115;49.296;10.602;2023-05-02T16:20:21;18.80;43.40
975;DHT22;6115;49.296;10.602;2023-05-02T16:25:22;18.70;42.80
975;DHT22;6115;49.296;10.602;2023-05-02T16:30:26;18.30;43.90
975;DHT22;6115;49.296;10.602;2023-05-02T16:35:29;18.10;44.80
975;DHT22;6115;49.296;10.602;2023-05-02T16:40:30;17.90;44.20
975;DHT22;6115;49.296;10.602;2023-05-02T16:45:31;18.00;45.10
975;DHT22;6115;49.296;10.602;2023-05-02T16:50:31;18.00;45.30
975;DHT22;6115;49.296;10.602;2023-05-02T16:55:32;17.70;45.70
975;DHT22;6115;49.296;10.602;2023-05-02T17:00:33;17.50;46.40
975;DHT22;6115;49.296;10.602;2023-05-02T17:05:33;17.40;47.10
975;DHT22;6115;49.296;10.602;2023-05-02T17:10:34;17.40;45.90
975;DHT22;6115;49.296;10.602;2023-05-02T17:15:37;17.30;46.30
975;DHT22;6115;49.296;10.602;2023-05-02T17:20:38;17.10;47.10
975;DHT22;6115;49.296;10.602;2023-05-02T17:25:39;17.00;47.50
975;DHT22;6115;49.296;10.602;2023-05-02T17:30:40;17.00;47.50
975;DHT22;6115;49.296;10.602;2023-05-02T17:35:41;17.00;46.50
975;DHT22;6115;49.296;10.602;2023-05-02T17:40:42;17.20;46.60
975;DHT22;6115;49.296;10.602;2023-05-02T17:45:42;16.90;47.10
975;DHT22;6115;49.296;10.602;2023-05-02T17:50:43;16.40;48.20
975;DHT22;6115;49.296;10.602;2023-05-02T17:55:44;16.20;49.60
975;DHT22;6115;49.296;10.602;2023-05-02T18:00:49;16.10;50.00
975;DHT22;6115;49.296;10.602;2023-05-02T18:05:55;15.90;50.40
975;DHT22;6115;49.296;10.602;2023-05-02T18:11:01;15.60;49.50
975;DHT22;6115;49.296;10.602;2023-05-02T18:16:04;15.40;49.70
975;DHT22;6115;49.296;10.602;2023-05-02T18:21:05;15.30;49.70
975;DHT22;6115;49.296;10.602;2023-05-02T18:26:11;15.20;50.20
975;DHT22;6115;49.296;10.602;2023-05-02T18:31:15;14.90;50.20
975;DHT22;6115;49.296;10.602;2023-05-02T18:36:23;14.70;51.00
975;DHT22;6115;49.296;10.602;2023-05-02T18:41:24;14.60;51.60
975;DHT22;6115;49.296;10.602;2023-05-02T18:46:25;14.30;51.90
975;DHT22;6115;49.296;10.602;2023-05-02T18:51:25;14.10;52.00
975;DHT22;6115;49.296;10.602;2023-05-02T18:56:28;14.00;52.30
975;DHT22;6115;49.296;10.602;2023-05-02T19:01:28;13.90;52.70
975;DHT22;6115;49.296;10.602;2023-05-02T19:06:29;13.80;53.40
975;DHT22;6115;49.296;10.602;2023-05-02T19:11:30;13.80;53.70
975;DHT22;6115;49.296;10.602;2023-05-02T19:16:31;13.40;53.40
975;DHT22;6115;49.296;10.602;2023-05-02T19:21:34;13.40;53.40
975;DHT22;6115;49.296;10.602;2023-05-02T19:26:37;13.30;53.80
975;DHT22;6115;49.296;10.602;2023-05-02T19:31:38;13.20;54.00
975;DHT22;6115;49.296;10.602;2023-05-02T19:36:39;13.10;54.80
975;DHT22;6115;49.296;10.602;2023-05-02T19:41:39;13.00;55.50
975;DHT22;6115;49.296;10.602;2023-05-02T19:46:41;12.90;55.80
975;DHT22;6115;49.296;10.602;2023-05-02T19:51:42;12.80;56.50
975;DHT22;6115;49.296;10.602;2023-05-02T19:56:42;12.80;56.70
975;DHT22;6115;49.296;10.602;2023-05-02T20:01:43;12.70;56.50
975;DHT22;6115;49.296;10.602;2023-05-02T20:06:45;12.70;56.80
975;DHT22;6115;49.296;10.602;2023-05-02T20:11:46;12.70;57.20
975;DHT22;6115;49.296;10.602;2023-05-02T20:16:47;12.60;57.70
975;DHT22;6115;49.296;10.602;2023-05-02T20:21:48;12.50;58.50
975;DHT22;6115;49.296;10.602;2023-05-02T20:26:48;12.30;59.30
975;DHT22;6115;49.296;10.602;2023-05-02T20:31:49;12.20;59.60
975;DHT22;6115;49.296;10.602;2023-05-02T20:36:49;12.10;60.10
975;DHT22;6115;49.296;10.602;2023-05-02T20:41:51;12.00;60.60
975;DHT22;6115;49.296;10.602;2023-05-02T20:46:52;11.80;61.00
975;DHT22;6115;49.296;10.602;2023-05-02T20:51:53;11.70;60.80
975;DHT22;6115;49.296;10.602;2023-05-02T20:56:53;11.70;60.90
975;DHT22;6115;49.296;10.602;2023-05-02T21:01:54;11.50;61.70
975;DHT22;6115;49.296;10.602;2023-05-02T21:06:54;11.40;62.20
975;DHT22;6115;49.296;10.602;2023-05-02T21:11:56;11.40;62.40
975;DHT22;6115;49.296;10.602;2023-05-02T21:16:56;11.30;62.40
975;DHT22;6115;49.296;10.602;2023-05-02T21:21:57;11.30;62.90
975;DHT22;6115;49.296;10.602;2023-05-02T21:26:58;11.10;62.90
975;DHT22;6115;49.296;10.602;2023-05-02T21:31:58;11.00;63.70
975;DHT22;6115;49.296;10.602;2023-05-02T21:36:59;11.00;64.40
975;DHT22;6115;49.296;10.602;2023-05-02T21:42:00;10.70;64.80
975;DHT22;6115;49.296;10.602;2023-05-02T21:47:00;10.60;64.80
975;DHT22;6115;49.296;10.602;2023-05-02T21:52:01;10.60;64.80
975;DHT22;6115;49.296;10.602;2023-05-02T21:57:02;10.60;65.30
975;DHT22;6115;49.296;10.602;2023-05-02T22:02:03;10.50;65.60
975;DHT22;6115;49.296;10.602;2023-05-02T22:07:03;10.50;65.90
975;DHT22;6115;49.296;10.602;2023-05-02T22:12:04;10.40;66.60
975;DHT22;6115;49.296;10.602;2023-05-02T22:17:05;10.30;66.70
975;DHT22;6115;49.296;10.602;2023-05-02T22:22:06;10.20;66.70
975;DHT22;6115;49.296;10.602;2023-05-02T22:27:06;10.00;67.40
975;DHT22;6115;49.296;10.602;2023-05-02T22:32:07;9.90;69.30
975;DHT22;6115;49.296;10.602;2023-05-02T22:37:07;9.80;70.00
975;DHT22;6115;49.296;10.602;2023-05-02T22:42:08;9.60;69.80
975;DHT22;6115;49.296;10.602;2023-05-02T22:47:08;9.60;69.90
975;DHT22;6115;49.296;10.602;2023-05-02T22:52:10;9.50;70.30
975;DHT22;6115;49.296;10.602;2023-05-02T22:57:11;9.50;70.20
975;DHT22;6115;49.296;10.602;2023-05-02T23:02:11;9.50;70.10
975;DHT22;6115;49.296;10.602;2023-05-02T23:07:12;9.50;70.10
975;DHT22;6115;49.296;10.602;2023-05-02T23:12:12;9.50;70.20
975;DHT22;6115;49.296;10.602;2023-05-02T23:17:13;9.40;70.60
975;DHT22;6115;49.296;10.602;2023-05-02T23:22:13;9.30;70.60
975;DHT22;6115;49.296;10.602;2023-05-02T23:27:14;9.30;70.70
975;DHT22;6115;49.296;10.602;2023-05-02T23:32:15;9.10;70.70
975;DHT22;6115;49.296;10.602;2023-05-02T23:37:16;9.10;71.30
975;DHT22;6115;49.296;10.602;2023-05-02T23:42:16;9.10;71.30
975;DHT22;6115;49.296;10.602;2023-05-02T23:47:17;9.00;71.40
975;DHT22;6115;49.296;10.602;2023-05-02T23:52:19;8.90;71.70
975;DHT22;6115;49.296;10.602;2023-05-02T23:57:20;8.80;72.10
